createdAt,value
2019-03-30T00:00:07.210Z,81.30
2019-03-30T00:01:07.227Z,80.99
2019-03-30T00:02:07.193Z,81.30
2019-03-30T00:03:07.178Z,81.51
2019-03-30T00:04:07.185Z,81.65
2019-03-30T00:05:07.165Z,82.16
2019-03-30T00:06:07.172Z,82.26
2019-03-30T00:07:07.174Z,82.06
2019-03-30T00:08:07.129Z,82.30
2019-03-30T00:09:07.112Z,83.09
2019-03-30T00:10:07.112Z,82.16
2019-03-30T00:11:07.091Z,82.16
2019-03-30T00:12:07.114Z,82.37
2019-03-30T00:13:07.071Z,82.57
2019-03-30T00:14:07.056Z,82.68
2019-03-30T00:15:07.049Z,82.68
2019-03-30T00:16:07.041Z,82.98
2019-03-30T00:17:07.042Z,82.26
2019-03-30T00:18:07.027Z,82.89
2019-03-30T00:19:07.022Z,82.68
2019-03-30T00:20:06.999Z,82.16
2019-03-30T00:21:06.976Z,81.96
2019-03-30T00:22:06.992Z,82.78
2019-03-30T00:23:06.992Z,82.37
2019-03-30T00:24:06.993Z,83.19
2019-03-30T00:25:06.983Z,82.74
2019-03-30T00:26:06.924Z,82.64
2019-03-30T00:27:06.912Z,82.06
2019-03-30T00:28:06.918Z,82.12
2019-03-30T00:29:06.906Z,82.57
2019-03-30T00:30:06.875Z,81.96
2019-03-30T00:31:06.868Z,82.37
2019-03-30T00:32:06.856Z,82.26
2019-03-30T00:33:06.843Z,82.33
2019-03-30T00:34:06.858Z,82.68
2019-03-30T00:35:06.837Z,81.44
2019-03-30T00:36:06.808Z,81.23
2019-03-30T00:37:06.807Z,81.44
2019-03-30T00:38:06.789Z,81.34
2019-03-30T00:39:06.785Z,81.54
2019-03-30T00:40:06.787Z,82.47
2019-03-30T00:41:06.754Z,82.37
2019-03-30T00:42:06.745Z,82.78
2019-03-30T00:43:06.740Z,82.40
2019-03-30T00:44:06.721Z,82.98
2019-03-30T00:45:06.775Z,83.09
2019-03-30T00:46:06.707Z,82.57
2019-03-30T00:47:06.684Z,82.78
2019-03-30T00:48:06.679Z,82.98
2019-03-30T00:49:06.669Z,82.68
2019-03-30T00:50:06.680Z,83.09
2019-03-30T00:51:06.667Z,82.16
2019-03-30T00:52:06.635Z,82.57
2019-03-30T00:53:06.644Z,82.68
2019-03-30T00:54:06.612Z,82.68
2019-03-30T00:55:06.600Z,82.47
2019-03-30T00:56:06.616Z,82.20
2019-03-30T00:57:06.576Z,82.92
2019-03-30T00:58:06.569Z,82.51
2019-03-30T00:59:06.553Z,82.71
2019-03-30T01:00:06.544Z,83.23
2019-03-30T01:01:06.548Z,82.71
2019-03-30T01:02:06.602Z,82.20
2019-03-30T01:03:06.510Z,82.71
2019-03-30T01:04:06.500Z,82.30
2019-03-30T01:05:06.486Z,82.30
2019-03-30T01:06:06.494Z,82.10
2019-03-30T01:07:06.495Z,82.10
2019-03-30T01:08:06.480Z,82.37
2019-03-30T01:09:06.448Z,82.30
2019-03-30T01:10:06.440Z,82.89
2019-03-30T01:11:06.417Z,81.99
2019-03-30T01:12:06.440Z,82.20
2019-03-30T01:13:06.415Z,81.89
2019-03-30T01:14:06.388Z,82.61
2019-03-30T01:15:06.385Z,81.89
2019-03-30T01:16:06.378Z,81.79
2019-03-30T01:17:06.367Z,83.03
2019-03-30T01:18:06.360Z,82.82
2019-03-30T01:19:06.337Z,83.64
2019-03-30T01:20:06.324Z,83.03
2019-03-30T01:21:06.312Z,83.23
2019-03-30T01:22:06.312Z,83.44
2019-03-30T01:23:06.323Z,83.54
2019-03-30T01:24:06.279Z,83.13
2019-03-30T01:25:06.276Z,83.23
2019-03-30T01:26:06.266Z,83.23
2019-03-30T01:27:06.244Z,83.61
2019-03-30T01:28:06.239Z,83.23
2019-03-30T01:29:06.240Z,83.09
2019-03-30T01:30:06.212Z,82.47
2019-03-30T01:31:06.199Z,82.89
2019-03-30T01:32:06.187Z,82.68
2019-03-30T01:33:06.181Z,82.89
2019-03-30T01:34:06.193Z,82.71
2019-03-30T01:35:06.199Z,81.99
2019-03-30T01:36:06.165Z,82.20
2019-03-30T01:37:06.137Z,81.99
2019-03-30T01:38:06.129Z,82.40
2019-03-30T01:39:06.153Z,82.34
2019-03-30T01:40:06.109Z,82.96
2019-03-30T01:41:06.087Z,82.86
2019-03-30T01:42:06.080Z,83.27
2019-03-30T01:43:06.071Z,83.31
2019-03-30T01:44:06.077Z,84.41
2019-03-30T01:45:06.089Z,84.30
2019-03-30T01:46:06.033Z,84.55
2019-03-30T01:47:06.024Z,84.86
2019-03-30T01:48:06.011Z,84.65
2019-03-30T01:49:05.998Z,84.75
2019-03-30T01:50:16.692Z,84.75
2019-03-30T01:51:06.977Z,84.75
2019-03-30T01:52:05.969Z,84.65
2019-03-30T01:53:05.957Z,84.61
2019-03-30T01:54:05.943Z,84.51
2019-03-30T01:55:05.950Z,84.65
2019-03-30T01:56:05.938Z,84.41
2019-03-30T01:57:05.955Z,83.51
2019-03-30T01:58:05.937Z,83.37
2019-03-30T01:59:05.886Z,84.51
2019-03-30T02:00:05.885Z,83.27
2019-03-30T02:01:05.898Z,84.44
2019-03-30T02:02:05.851Z,84.30
2019-03-30T02:03:05.865Z,84.20
2019-03-30T02:04:05.842Z,84.30
2019-03-30T02:05:05.851Z,84.20
2019-03-30T02:06:05.857Z,84.81
2019-03-30T02:07:05.823Z,84.81
2019-03-30T02:08:05.792Z,84.72
2019-03-30T02:09:05.776Z,84.41
2019-03-30T02:10:05.774Z,84.09
2019-03-30T02:11:05.756Z,84.20
2019-03-30T02:12:05.762Z,84.72
2019-03-30T02:13:05.753Z,84.72
2019-03-30T02:14:05.751Z,84.72
2019-03-30T02:15:05.709Z,84.72
2019-03-30T02:16:05.710Z,84.20
2019-03-30T02:17:06.059Z,84.61
2019-03-30T02:18:05.729Z,84.09
2019-03-30T02:19:05.681Z,84.41
2019-03-30T02:20:05.655Z,84.09
2019-03-30T02:21:05.666Z,84.20
2019-03-30T02:22:05.686Z,84.41
2019-03-30T02:23:05.636Z,84.27
2019-03-30T02:24:05.614Z,84.67
2019-03-30T02:25:05.623Z,84.67
2019-03-30T02:26:05.586Z,84.16
2019-03-30T02:27:05.599Z,84.16
2019-03-30T02:28:07.112Z,84.30
2019-03-30T02:29:05.673Z,84.27
2019-03-30T02:30:05.576Z,84.20
2019-03-30T02:31:05.539Z,84.30
2019-03-30T02:32:05.545Z,84.72
2019-03-30T02:33:05.541Z,84.09
2019-03-30T02:34:05.511Z,84.81
2019-03-30T02:35:05.504Z,84.72
2019-03-30T02:36:05.497Z,84.61
2019-03-30T02:37:05.480Z,84.81
2019-03-30T02:38:05.455Z,84.20
2019-03-30T02:39:05.471Z,84.23
2019-03-30T02:40:05.447Z,84.61
2019-03-30T02:41:05.421Z,84.92
2019-03-30T02:42:05.444Z,84.41
2019-03-30T02:43:05.433Z,84.30
2019-03-30T02:44:05.433Z,84.81
2019-03-30T02:45:05.384Z,84.20
2019-03-30T02:46:05.381Z,84.16
2019-03-30T02:47:05.384Z,84.57
2019-03-30T02:48:05.354Z,84.16
2019-03-30T02:49:05.401Z,84.51
2019-03-30T02:50:05.349Z,84.27
2019-03-30T02:51:05.320Z,84.16
2019-03-30T02:52:05.313Z,84.27
2019-03-30T02:53:05.306Z,83.85
2019-03-30T02:54:05.300Z,83.23
2019-03-30T02:55:05.292Z,83.33
2019-03-30T02:56:05.255Z,82.82
2019-03-30T02:57:05.288Z,82.30
2019-03-30T02:58:05.236Z,82.61
2019-03-30T02:59:05.312Z,82.71
2019-03-30T03:00:05.253Z,82.82
2019-03-30T03:01:05.212Z,82.71
2019-03-30T03:02:05.190Z,83.06
2019-03-30T03:03:05.191Z,82.92
2019-03-30T03:04:05.171Z,82.71
2019-03-30T03:05:05.183Z,82.61
2019-03-30T03:06:05.201Z,82.71
2019-03-30T03:07:05.136Z,82.51
2019-03-30T03:08:05.137Z,82.61
2019-03-30T03:09:05.138Z,82.86
2019-03-30T03:10:05.108Z,82.34
2019-03-30T03:11:05.135Z,82.34
2019-03-30T03:12:05.103Z,82.34
2019-03-30T03:13:05.073Z,82.34
2019-03-30T03:14:05.072Z,82.65
2019-03-30T03:15:05.052Z,82.24
2019-03-30T03:16:05.056Z,82.96
2019-03-30T03:17:05.048Z,83.17
2019-03-30T03:18:05.039Z,82.55
2019-03-30T03:19:05.015Z,82.65
2019-03-30T03:20:05.020Z,82.86
2019-03-30T03:21:07.869Z,82.96
2019-03-30T03:22:05.024Z,82.75
2019-03-30T03:23:04.957Z,82.03
2019-03-30T03:24:04.982Z,82.34
2019-03-30T03:25:04.941Z,82.24
2019-03-30T03:26:04.966Z,83.06
2019-03-30T03:27:04.911Z,82.96
2019-03-30T03:28:04.922Z,82.96
2019-03-30T03:29:04.889Z,81.96
2019-03-30T03:30:04.921Z,83.17
2019-03-30T03:31:04.875Z,82.89
2019-03-30T03:32:05.135Z,83.10
2019-03-30T03:33:04.876Z,82.86
2019-03-30T03:34:04.847Z,82.48
2019-03-30T03:35:04.836Z,83.20
2019-03-30T03:36:04.824Z,83.31
2019-03-30T03:37:04.830Z,83.20
2019-03-30T03:38:04.832Z,82.79
2019-03-30T03:39:04.830Z,82.48
2019-03-30T03:40:04.771Z,83.62
2019-03-30T03:41:04.788Z,82.79
2019-03-30T03:42:04.742Z,82.79
2019-03-30T03:43:04.753Z,82.79
2019-03-30T03:44:04.759Z,82.38
2019-03-30T03:45:04.722Z,82.48
2019-03-30T03:46:04.700Z,83.10
2019-03-30T03:47:04.693Z,83.04
2019-03-30T03:48:04.685Z,83.04
2019-03-30T03:49:04.746Z,82.83
2019-03-30T03:50:04.702Z,83.49
2019-03-30T03:51:04.663Z,83.90
2019-03-30T03:52:04.671Z,84.31
2019-03-30T03:53:04.622Z,84.52
2019-03-30T03:54:04.630Z,84.52
2019-03-30T03:55:04.623Z,84.83
2019-03-30T03:56:04.606Z,84.77
2019-03-30T03:57:04.600Z,85.08
2019-03-30T03:58:04.570Z,85.08
2019-03-30T03:59:04.564Z,84.97
2019-03-30T04:00:04.595Z,85.08
2019-03-30T04:01:04.542Z,84.87
2019-03-30T04:02:04.536Z,84.77
2019-03-30T04:03:04.511Z,85.18
2019-03-30T04:04:04.505Z,85.32
2019-03-30T04:05:04.523Z,85.28
2019-03-30T04:06:04.506Z,85.42
2019-03-30T04:07:04.466Z,85.22
2019-03-30T04:08:04.460Z,85.42
2019-03-30T04:09:04.449Z,85.53
2019-03-30T04:10:04.447Z,85.42
2019-03-30T04:11:04.466Z,85.60
2019-03-30T04:12:04.414Z,85.28
2019-03-30T04:13:06.874Z,84.97
2019-03-30T04:14:04.392Z,85.08
2019-03-30T04:15:04.382Z,84.87
2019-03-30T04:16:04.368Z,84.97
2019-03-30T04:17:04.373Z,84.97
2019-03-30T04:18:04.363Z,84.87
2019-03-30T04:19:04.337Z,84.66
2019-03-30T04:20:04.340Z,84.66
2019-03-30T04:21:04.313Z,84.87
2019-03-30T04:22:04.347Z,84.73
2019-03-30T04:23:04.289Z,84.77
2019-03-30T04:24:04.280Z,84.45
2019-03-30T04:25:04.274Z,84.87
2019-03-30T04:26:04.262Z,85.08
2019-03-30T04:27:04.252Z,85.18
2019-03-30T04:28:04.252Z,85.18
2019-03-30T04:29:04.232Z,84.77
2019-03-30T04:30:04.213Z,84.66
2019-03-30T04:31:04.201Z,84.87
2019-03-30T04:32:04.195Z,84.73
2019-03-30T04:33:04.237Z,84.63
2019-03-30T04:34:04.172Z,84.73
2019-03-30T04:35:04.159Z,84.31
2019-03-30T04:36:04.153Z,84.42
2019-03-30T04:37:04.133Z,83.90
2019-03-30T04:38:04.146Z,84.63
2019-03-30T04:39:04.129Z,84.31
2019-03-30T04:40:04.121Z,84.31
2019-03-30T04:41:04.092Z,84.31
2019-03-30T04:42:04.090Z,84.28
2019-03-30T04:43:04.116Z,84.83
2019-03-30T04:44:04.093Z,84.17
2019-03-30T04:45:04.047Z,84.38
2019-03-30T04:46:04.041Z,84.28
2019-03-30T04:47:04.038Z,84.42
2019-03-30T04:48:04.015Z,84.31
2019-03-30T04:49:04.007Z,84.31
2019-03-30T04:50:04.035Z,84.42
2019-03-30T04:51:03.984Z,84.17
2019-03-30T04:52:03.968Z,84.31
2019-03-30T04:53:03.960Z,84.42
2019-03-30T04:54:03.973Z,84.00
2019-03-30T04:55:03.973Z,84.11
2019-03-30T04:56:03.926Z,84.63
2019-03-30T04:57:03.924Z,84.52
2019-03-30T04:58:03.903Z,84.63
2019-03-30T04:59:03.897Z,84.73
2019-03-30T05:00:03.878Z,84.36
2019-03-30T05:01:03.883Z,84.97
2019-03-30T05:02:03.863Z,84.87
2019-03-30T05:03:03.847Z,84.87
2019-03-30T05:04:03.857Z,84.66
2019-03-30T05:05:03.837Z,84.45
2019-03-30T05:06:03.842Z,84.87
2019-03-30T05:07:03.802Z,84.42
2019-03-30T05:08:03.795Z,84.52
2019-03-30T05:09:03.788Z,84.94
2019-03-30T05:10:03.770Z,85.04
2019-03-30T05:11:03.806Z,84.94
2019-03-30T05:12:03.745Z,84.94
2019-03-30T05:13:03.734Z,84.31
2019-03-30T05:14:03.732Z,84.21
2019-03-30T05:15:03.712Z,84.28
2019-03-30T05:16:03.733Z,84.17
2019-03-30T05:17:03.717Z,84.38
2019-03-30T05:18:03.684Z,84.07
2019-03-30T05:19:03.671Z,84.28
2019-03-30T05:20:03.656Z,84.28
2019-03-30T05:21:03.648Z,83.34
2019-03-30T05:22:12.052Z,83.65
2019-03-30T05:23:04.633Z,83.34
2019-03-30T05:24:03.614Z,83.31
2019-03-30T05:25:03.605Z,83.14
2019-03-30T05:26:03.598Z,82.48
2019-03-30T05:27:03.601Z,82.62
2019-03-30T05:28:03.569Z,83.00
2019-03-30T05:29:03.555Z,82.83
2019-03-30T05:30:03.552Z,82.73
2019-03-30T05:31:03.534Z,83.34
2019-03-30T05:32:03.554Z,83.65
2019-03-30T05:33:06.060Z,83.55
2019-03-30T05:34:03.507Z,82.83
2019-03-30T05:35:03.490Z,83.34
2019-03-30T05:36:03.485Z,83.76
2019-03-30T05:37:03.468Z,83.65
2019-03-30T05:38:03.528Z,83.14
2019-03-30T05:39:03.445Z,83.34
2019-03-30T05:40:03.485Z,83.20
2019-03-30T05:41:03.423Z,82.79
2019-03-30T05:42:03.422Z,82.89
2019-03-30T05:43:03.430Z,83.00
2019-03-30T05:44:03.394Z,82.07
2019-03-30T05:45:03.383Z,82.38
2019-03-30T05:46:03.369Z,82.17
2019-03-30T05:47:03.359Z,82.38
2019-03-30T05:48:03.424Z,82.79
2019-03-30T05:49:03.333Z,83.10
2019-03-30T05:50:03.329Z,82.89
2019-03-30T05:51:03.325Z,83.10
2019-03-30T05:52:03.299Z,83.20
2019-03-30T05:53:03.295Z,81.96
2019-03-30T05:54:03.300Z,82.28
2019-03-30T05:55:03.270Z,82.48
2019-03-30T05:56:03.261Z,82.48
2019-03-30T05:57:03.250Z,82.17
2019-03-30T05:58:03.240Z,82.48
2019-03-30T05:59:03.255Z,82.07
2019-03-30T06:00:03.222Z,82.89
2019-03-30T06:01:03.200Z,82.79
2019-03-30T06:02:03.195Z,82.45
2019-03-30T06:03:03.187Z,81.56
2019-03-30T06:04:03.232Z,81.96
2019-03-30T06:05:03.881Z,81.10
2019-03-30T06:06:03.149Z,81.62
2019-03-30T06:07:03.146Z,81.72
2019-03-30T06:08:03.126Z,81.21
2019-03-30T06:09:03.115Z,81.51
2019-03-30T06:10:03.123Z,81.31
2019-03-30T06:11:03.105Z,81.00
2019-03-30T06:12:03.095Z,80.90
2019-03-30T06:13:03.068Z,81.07
2019-03-30T06:14:03.064Z,81.48
2019-03-30T06:15:03.082Z,81.17
2019-03-30T06:16:03.036Z,80.34
2019-03-30T06:17:03.052Z,80.04
2019-03-30T06:18:03.018Z,80.00
2019-03-30T06:19:03.010Z,80.30
2019-03-30T06:20:02.994Z,79.90
2019-03-30T06:21:02.998Z,79.75
2019-03-30T06:22:02.968Z,79.34
2019-03-30T06:23:02.960Z,78.72
2019-03-30T06:24:02.951Z,79.24
2019-03-30T06:25:02.949Z,79.24
2019-03-30T06:26:02.951Z,79.24
2019-03-30T06:27:02.925Z,79.34
2019-03-30T06:28:02.907Z,79.20
2019-03-30T06:29:02.895Z,78.69
2019-03-30T06:30:02.886Z,78.79
2019-03-30T06:31:02.905Z,78.28
2019-03-30T06:32:02.860Z,78.17
2019-03-30T06:33:02.852Z,77.62
2019-03-30T06:34:02.837Z,78.03
2019-03-30T06:35:02.827Z,78.03
2019-03-30T06:36:02.816Z,77.93
2019-03-30T06:37:02.826Z,77.58
2019-03-30T06:38:02.790Z,76.86
2019-03-30T06:39:02.789Z,77.17
2019-03-30T06:40:02.773Z,76.76
2019-03-30T06:41:02.788Z,76.56
2019-03-30T06:42:02.785Z,75.63
2019-03-30T06:43:02.735Z,75.84
2019-03-30T06:44:02.733Z,75.80
2019-03-30T06:45:02.717Z,75.90
2019-03-30T06:46:02.715Z,75.80
2019-03-30T06:47:02.730Z,75.90
2019-03-30T06:48:02.683Z,75.67
2019-03-30T06:49:02.680Z,74.95
2019-03-30T06:50:02.676Z,74.50
2019-03-30T06:51:02.667Z,73.85
2019-03-30T06:52:02.639Z,73.54
2019-03-30T06:53:02.663Z,73.71
2019-03-30T06:54:02.626Z,73.61
2019-03-30T06:55:02.609Z,73.10
2019-03-30T06:56:02.602Z,72.99
2019-03-30T06:57:02.606Z,73.40
2019-03-30T06:58:02.600Z,73.30
2019-03-30T06:59:02.577Z,73.30
2019-03-30T07:00:02.547Z,73.50
2019-03-30T07:01:02.536Z,73.91
2019-03-30T07:02:02.531Z,72.58
2019-03-30T07:03:02.557Z,73.71
2019-03-30T07:04:02.513Z,72.89
2019-03-30T07:05:02.498Z,72.78
2019-03-30T07:06:02.489Z,73.33
2019-03-30T07:07:02.661Z,74.15
2019-03-30T07:08:02.468Z,73.91
2019-03-30T07:09:02.492Z,72.78
2019-03-30T07:10:02.439Z,73.19
2019-03-30T07:11:02.434Z,72.48
2019-03-30T07:12:02.440Z,73.50
2019-03-30T07:13:02.428Z,72.68
2019-03-30T07:14:02.437Z,72.78
2019-03-30T07:15:02.387Z,73.57
2019-03-30T07:16:02.400Z,73.16
2019-03-30T07:17:02.395Z,72.44
2019-03-30T07:18:02.354Z,72.44
2019-03-30T07:19:02.397Z,72.65
2019-03-30T07:20:02.353Z,72.61
2019-03-30T07:21:02.337Z,72.61
2019-03-30T07:22:02.316Z,72.20
2019-03-30T07:23:11.822Z,72.20
2019-03-30T07:24:03.297Z,71.90
2019-03-30T07:25:02.310Z,72.17
2019-03-30T07:26:02.389Z,72.89
2019-03-30T07:27:02.252Z,71.35
2019-03-30T07:28:02.247Z,72.38
2019-03-30T07:29:02.234Z,71.52
2019-03-30T07:30:02.221Z,70.50
2019-03-30T07:31:02.246Z,71.52
2019-03-30T07:32:02.233Z,70.91
2019-03-30T07:33:02.190Z,70.70
2019-03-30T07:34:02.181Z,70.67
2019-03-30T07:35:02.164Z,69.54
2019-03-30T07:36:02.184Z,69.54
2019-03-30T07:37:02.202Z,69.41
2019-03-30T07:38:02.132Z,69.10
2019-03-30T07:39:02.155Z,69.31
2019-03-30T07:40:02.163Z,69.20
2019-03-30T07:41:02.106Z,68.79
2019-03-30T07:42:02.105Z,68.38
2019-03-30T07:43:02.149Z,67.67
2019-03-30T07:44:02.088Z,67.94
2019-03-30T07:45:02.095Z,67.84
2019-03-30T07:46:02.048Z,68.46
2019-03-30T07:47:02.070Z,68.46
2019-03-30T07:48:02.058Z,68.05
2019-03-30T07:49:02.028Z,68.76
2019-03-30T07:50:02.015Z,68.22
2019-03-30T07:51:01.994Z,68.01
2019-03-30T07:52:01.998Z,67.30
2019-03-30T07:53:02.000Z,66.38
2019-03-30T07:54:02.002Z,68.22
2019-03-30T07:55:01.966Z,66.89
2019-03-30T07:56:08.185Z,66.96
2019-03-30T07:57:07.098Z,66.55
2019-03-30T07:58:03.043Z,67.07
2019-03-30T07:59:01.897Z,66.52
2019-03-30T08:00:01.920Z,65.84
2019-03-30T08:01:01.889Z,66.83
2019-03-30T08:02:01.878Z,66.72
2019-03-30T08:03:01.859Z,66.21
2019-03-30T08:04:01.859Z,65.80
2019-03-30T08:05:01.873Z,67.21
2019-03-30T08:06:01.828Z,66.49
2019-03-30T08:07:01.827Z,67.10
2019-03-30T08:08:01.811Z,66.49
2019-03-30T08:09:01.790Z,66.80
2019-03-30T08:10:01.789Z,65.84
2019-03-30T08:11:02.013Z,65.34
2019-03-30T08:12:01.760Z,65.54
2019-03-30T08:13:01.784Z,65.64
2019-03-30T08:14:01.771Z,65.84
2019-03-30T08:15:01.938Z,65.51
2019-03-30T08:16:01.760Z,66.12
2019-03-30T08:17:01.704Z,64.83
2019-03-30T08:18:01.690Z,64.90
2019-03-30T08:19:01.680Z,65.20
2019-03-30T08:20:01.701Z,65.00
2019-03-30T08:21:01.691Z,64.79
2019-03-30T08:22:01.653Z,65.00
2019-03-30T08:23:01.635Z,64.66
2019-03-30T08:24:01.627Z,64.46
2019-03-30T08:25:01.622Z,64.36
2019-03-30T08:26:01.602Z,64.46
2019-03-30T08:27:01.608Z,64.97
2019-03-30T08:28:01.604Z,64.25
2019-03-30T08:29:01.584Z,64.97
2019-03-30T08:30:01.561Z,64.66
2019-03-30T08:31:01.553Z,64.94
2019-03-30T08:32:01.574Z,64.43
2019-03-30T08:33:01.527Z,63.00
2019-03-30T08:34:01.515Z,63.68
2019-03-30T08:35:01.505Z,64.50
2019-03-30T08:36:01.501Z,63.89
2019-03-30T08:37:01.519Z,62.97
2019-03-30T08:38:01.570Z,63.04
2019-03-30T08:39:01.460Z,62.94
2019-03-30T08:40:01.457Z,62.43
2019-03-30T08:41:01.436Z,62.74
2019-03-30T08:42:01.476Z,62.33
2019-03-30T08:43:01.461Z,62.63
2019-03-30T08:44:01.404Z,62.54
2019-03-30T08:45:01.403Z,62.43
2019-03-30T08:46:01.381Z,61.99
2019-03-30T08:47:01.373Z,62.33
2019-03-30T08:48:01.679Z,62.02
2019-03-30T08:49:01.370Z,62.54
2019-03-30T08:50:01.352Z,61.52
2019-03-30T08:51:01.330Z,62.33
2019-03-30T08:52:01.323Z,61.93
2019-03-30T08:53:01.393Z,62.54
2019-03-30T08:54:01.345Z,62.33
2019-03-30T08:55:01.301Z,61.82
2019-03-30T08:56:01.290Z,61.31
2019-03-30T08:57:01.268Z,61.82
2019-03-30T08:58:01.263Z,61.31
2019-03-30T08:59:01.347Z,61.29
2019-03-30T09:00:01.264Z,61.49
2019-03-30T09:01:01.267Z,61.49
2019-03-30T09:02:01.233Z,61.97
2019-03-30T09:03:01.197Z,61.87
2019-03-30T09:04:01.188Z,60.95
2019-03-30T09:05:01.182Z,61.25
2019-03-30T09:06:01.190Z,60.64
2019-03-30T09:07:01.214Z,60.34
2019-03-30T09:08:01.144Z,60.64
2019-03-30T09:09:01.227Z,60.21
2019-03-30T09:10:01.127Z,59.60
2019-03-30T09:11:01.120Z,60.11
2019-03-30T09:12:01.147Z,60.21
2019-03-30T09:13:01.138Z,60.52
2019-03-30T09:14:01.084Z,60.82
2019-03-30T09:15:01.074Z,60.11
2019-03-30T09:16:01.074Z,60.69
2019-03-30T09:17:01.047Z,59.98
2019-03-30T09:18:01.083Z,59.47
2019-03-30T09:19:01.029Z,59.37
2019-03-30T09:20:01.013Z,59.47
2019-03-30T09:21:01.008Z,59.06
2019-03-30T09:22:01.013Z,59.16
2019-03-30T09:23:00.985Z,60.15
2019-03-30T09:24:09.589Z,60.15
2019-03-30T09:25:01.956Z,59.06
2019-03-30T09:26:00.946Z,60.15
2019-03-30T09:27:00.965Z,59.64
2019-03-30T09:28:00.953Z,60.66
2019-03-30T09:29:00.957Z,59.75
2019-03-30T09:30:00.921Z,59.03
2019-03-30T09:31:00.892Z,58.80
2019-03-30T09:32:13.614Z,58.50
2019-03-30T09:33:01.872Z,58.70
2019-03-30T09:34:00.888Z,58.09
2019-03-30T09:35:00.921Z,58.60
2019-03-30T09:36:00.843Z,58.78
2019-03-30T09:37:00.847Z,58.20
2019-03-30T09:38:00.821Z,58.47
2019-03-30T09:39:00.822Z,58.78
2019-03-30T09:40:00.852Z,58.58
2019-03-30T09:41:00.798Z,57.46
2019-03-30T09:42:00.822Z,57.35
2019-03-30T09:43:00.765Z,58.78
2019-03-30T09:44:00.773Z,58.58
2019-03-30T09:45:00.762Z,58.06
2019-03-30T09:46:00.744Z,58.27
2019-03-30T09:47:00.723Z,58.06
2019-03-30T09:48:00.714Z,58.37
2019-03-30T09:49:00.695Z,58.54
2019-03-30T09:50:02.536Z,58.04
2019-03-30T09:51:00.725Z,56.82
2019-03-30T09:52:00.695Z,56.52
2019-03-30T09:53:00.667Z,56.41
2019-03-30T09:54:00.645Z,56.79
2019-03-30T09:55:00.627Z,56.99
2019-03-30T09:56:00.647Z,56.79
2019-03-30T09:57:00.634Z,56.59
2019-03-30T09:58:00.636Z,57.40
2019-03-30T09:59:00.591Z,57.30
2019-03-30T10:00:00.593Z,56.39
2019-03-30T10:01:00.593Z,56.90
2019-03-30T10:02:00.579Z,56.49
2019-03-30T10:03:00.559Z,57.07
2019-03-30T10:04:00.539Z,55.55
2019-03-30T10:05:00.516Z,55.96
2019-03-30T10:06:00.515Z,56.46
2019-03-30T10:07:00.816Z,56.05
2019-03-30T10:08:00.500Z,56.97
2019-03-30T10:09:00.476Z,56.23
2019-03-30T10:10:00.495Z,55.02
2019-03-30T10:11:00.457Z,55.93
2019-03-30T10:12:00.470Z,54.71
2019-03-30T10:13:00.450Z,54.51
2019-03-30T10:14:00.429Z,54.82
2019-03-30T10:15:00.414Z,53.70
2019-03-30T10:16:00.437Z,54.18
2019-03-30T10:17:00.417Z,53.07
2019-03-30T10:18:00.376Z,53.67
2019-03-30T10:19:00.399Z,53.58
2019-03-30T10:20:04.534Z,54.69
2019-03-30T10:21:00.345Z,53.58
2019-03-30T10:22:00.358Z,54.28
2019-03-30T10:23:00.327Z,54.66
2019-03-30T10:24:00.312Z,53.65
2019-03-30T10:25:00.300Z,54.05
2019-03-30T10:26:00.285Z,53.65
2019-03-30T10:27:00.278Z,53.65
2019-03-30T10:28:00.321Z,54.56
2019-03-30T10:29:00.250Z,53.65
2019-03-30T10:30:00.489Z,53.05
2019-03-30T10:31:00.272Z,53.45
2019-03-30T10:32:00.217Z,53.22
2019-03-30T10:33:00.240Z,53.93
2019-03-30T10:34:00.193Z,52.72
2019-03-30T10:35:00.366Z,52.92
2019-03-30T10:36:00.178Z,50.99
2019-03-30T10:37:00.171Z,53.02
2019-03-30T10:38:00.154Z,52.11
2019-03-30T10:39:00.162Z,53.25
2019-03-30T10:40:00.335Z,52.54
2019-03-30T10:41:00.122Z,52.03
2019-03-30T10:42:00.111Z,52.41
2019-03-30T10:43:00.097Z,52.51
2019-03-30T10:44:00.122Z,52.61
2019-03-30T10:45:00.345Z,52.48
2019-03-30T10:46:00.078Z,51.70
2019-03-30T10:47:00.056Z,51.17
2019-03-30T10:48:00.042Z,52.39
2019-03-30T10:49:00.064Z,52.89
2019-03-30T10:50:00.017Z,52.99
2019-03-30T10:51:00.011Z,53.58
2019-03-30T10:52:00.003Z,52.67
2019-03-30T10:52:59.984Z,50.84
2019-03-30T10:53:59.975Z,51.35
2019-03-30T10:55:00.010Z,51.96
2019-03-30T10:55:59.950Z,52.46
2019-03-30T10:56:59.940Z,52.06
2019-03-30T10:57:59.941Z,52.36
2019-03-30T10:58:59.917Z,52.26
2019-03-30T11:00:00.407Z,51.35
2019-03-30T11:00:59.909Z,52.36
2019-03-30T11:01:59.888Z,52.16
2019-03-30T11:02:59.966Z,51.65
2019-03-30T11:03:59.868Z,51.83
2019-03-30T11:04:59.892Z,51.73
2019-03-30T11:05:59.858Z,50.32
2019-03-30T11:06:59.845Z,51.05
2019-03-30T11:07:59.834Z,51.15
2019-03-30T11:08:59.808Z,51.86
2019-03-30T11:09:59.836Z,51.63
2019-03-30T11:10:59.788Z,51.55
2019-03-30T11:11:59.787Z,51.55
2019-03-30T11:12:59.775Z,50.62
2019-03-30T11:13:59.757Z,51.23
2019-03-30T11:14:59.775Z,50.32
2019-03-30T11:15:59.750Z,50.92
2019-03-30T11:16:59.725Z,49.10
2019-03-30T11:17:59.730Z,48.30
2019-03-30T11:18:59.730Z,47.28
2019-03-30T11:19:59.688Z,47.49
2019-03-30T11:20:59.739Z,48.30
2019-03-30T11:22:03.002Z,47.08
2019-03-30T11:22:59.653Z,46.28
2019-03-30T11:23:59.654Z,46.28
2019-03-30T11:25:07.418Z,47.39
2019-03-30T11:26:00.647Z,46.58
2019-03-30T11:26:59.626Z,44.56
2019-03-30T11:27:59.634Z,44.56
2019-03-30T11:28:59.587Z,46.17
2019-03-30T11:29:59.573Z,46.17
2019-03-30T11:30:59.607Z,46.88
2019-03-30T11:31:59.559Z,46.48
2019-03-30T11:32:59.569Z,47.11
2019-03-30T11:33:59.543Z,46.58
2019-03-30T11:34:59.523Z,45.89
2019-03-30T11:35:59.505Z,46.50
2019-03-30T11:37:00.716Z,46.78
2019-03-30T11:37:59.493Z,47.19
2019-03-30T11:38:59.507Z,47.69
2019-03-30T11:39:59.465Z,47.28
2019-03-30T11:40:59.454Z,46.88
2019-03-30T11:41:59.444Z,47.99
2019-03-30T11:42:59.428Z,47.11
2019-03-30T11:43:59.451Z,46.37
2019-03-30T11:44:59.417Z,45.87
2019-03-30T11:45:59.405Z,46.68
2019-03-30T11:46:59.386Z,47.39
2019-03-30T11:47:59.416Z,47.19
2019-03-30T11:48:59.392Z,48.19
2019-03-30T11:49:59.380Z,47.59
2019-03-30T11:50:59.358Z,47.39
2019-03-30T11:51:59.333Z,47.28
2019-03-30T11:52:59.324Z,46.58
2019-03-30T11:53:59.336Z,46.58
2019-03-30T11:54:59.334Z,46.78
2019-03-30T11:55:59.306Z,46.98
2019-03-30T11:56:59.448Z,46.48
2019-03-30T11:57:59.306Z,46.88
2019-03-30T11:58:59.267Z,47.39
2019-03-30T11:59:59.269Z,47.19
2019-03-30T12:00:59.255Z,47.99
2019-03-30T12:01:59.220Z,48.10
2019-03-30T12:02:59.215Z,47.97
2019-03-30T12:03:59.207Z,47.97
2019-03-30T12:04:59.186Z,48.37
2019-03-30T12:05:59.211Z,47.47
2019-03-30T12:06:59.172Z,47.67
2019-03-30T12:07:59.152Z,47.16
2019-03-30T12:08:59.147Z,47.16
2019-03-30T12:09:59.148Z,47.26
2019-03-30T12:10:59.179Z,48.05
2019-03-30T12:11:59.110Z,48.15
2019-03-30T12:12:59.113Z,47.44
2019-03-30T12:13:59.102Z,46.64
2019-03-30T12:14:59.079Z,47.14
2019-03-30T12:15:59.097Z,46.64
2019-03-30T12:16:59.057Z,46.53
2019-03-30T12:17:59.095Z,45.93
2019-03-30T12:18:59.034Z,47.14
2019-03-30T12:19:59.715Z,45.93
2019-03-30T12:20:59.013Z,45.62
2019-03-30T12:21:59.014Z,45.93
2019-03-30T12:22:59.000Z,46.33
2019-03-30T12:23:59.025Z,46.33
2019-03-30T12:24:58.965Z,46.53
2019-03-30T12:25:58.958Z,46.73
2019-03-30T12:26:58.944Z,47.14
2019-03-30T12:27:58.936Z,46.23
2019-03-30T12:28:58.956Z,46.13
2019-03-30T12:29:58.920Z,45.42
2019-03-30T12:30:58.899Z,46.13
2019-03-30T12:31:58.905Z,47.04
2019-03-30T12:32:58.886Z,45.62
2019-03-30T12:33:58.896Z,45.73
2019-03-30T12:34:58.880Z,47.34
2019-03-30T12:35:58.850Z,46.56
2019-03-30T12:36:58.846Z,45.73
2019-03-30T12:37:58.823Z,45.75
2019-03-30T12:38:58.818Z,47.16
2019-03-30T12:39:58.836Z,46.36
2019-03-30T12:40:58.819Z,46.36
2019-03-30T12:41:58.778Z,46.36
2019-03-30T12:42:58.771Z,46.15
2019-03-30T12:43:58.763Z,46.15
2019-03-30T12:44:58.752Z,46.96
2019-03-30T12:45:58.762Z,46.36
2019-03-30T12:46:58.781Z,45.95
2019-03-30T12:47:58.721Z,47.16
2019-03-30T12:48:58.704Z,47.34
2019-03-30T12:49:58.693Z,46.96
2019-03-30T12:50:58.687Z,47.67
2019-03-30T12:51:58.705Z,47.47